sensor_id;sensor_type;location;lat;lon;timestamp;P1;durP1;ratioP1;P2;durP2;ratioP2
61003;SDS011;46889;37.310;13.582;2023-10-13T00:02:07;11.70;;;4.68;;
61003;SDS011;46889;37.310;13.582;2023-10-13T00:04:33;7.35;;;3.33;;
61003;SDS011;46889;37.310;13.582;2023-10-13T00:07:03;12.93;;;4.03;;
61003;SDS011;46889;37.310;13.582;2023-10-13T00:09:33;11.05;;;4.07;;
61003;SDS011;46889;37.310;13.582;2023-10-13T00:12:04;10.57;;;4.25;;
61003;SDS011;46889;37.310;13.582;2023-10-13T00:14:37;9.50;;;4.47;;
61003;SDS011;46889;37.310;13.582;2023-10-13T00:17:04;10.80;;;4.53;;
61003;SDS011;46889;37.310;13.582;2023-10-13T00:19:40;10.65;;;4.18;;
61003;SDS011;46889;37.310;13.582;2023-10-13T00:22:11;9.40;;;4.15;;
61003;SDS011;46889;37.310;13.582;2023-10-13T00:24:41;9.65;;;4.20;;
61003;SDS011;46889;37.310;13.582;2023-10-13T00:27:14;10.52;;;4.43;;
61003;SDS011;46889;37.310;13.582;2023-10-13T00:30:00;8.88;;;4.10;;
61003;SDS011;46889;37.310;13.582;2023-10-13T00:32:51;10.27;;;4.35;;
61003;SDS011;46889;37.310;13.582;2023-10-13T00:35:28;10.23;;;4.38;;
61003;SDS011;46889;37.310;13.582;2023-10-13T00:38:07;10.05;;;4.45;;
61003;SDS011;46889;37.310;13.582;2023-10-13T00:40:39;7.88;;;4.07;;
61003;SDS011;46889;37.310;13.582;2023-10-13T00:43:07;8.65;;;4.22;;
61003;SDS011;46889;37.310;13.582;2023-10-13T00:45:52;9.55;;;4.28;;
61003;SDS011;46889;37.310;13.582;2023-10-13T00:50:58;12.02;;;4.57;;
61003;SDS011;46889;37.310;13.582;2023-10-13T00:53:29;10.80;;;4.13;;
61003;SDS011;46889;37.310;13.582;2023-10-13T00:56:01;11.35;;;4.47;;
61003;SDS011;46889;37.310;13.582;2023-10-13T00:58:35;10.00;;;4.40;;
61003;SDS011;46889;37.310;13.582;2023-10-13T01:01:05;11.25;;;4.30;;
61003;SDS011;46889;37.310;13.582;2023-10-13T01:03:46;6.32;;;4.10;;
61003;SDS011;46889;37.310;13.582;2023-10-13T01:06:17;11.63;;;4.93;;
61003;SDS011;46889;37.310;13.582;2023-10-13T01:08:47;8.68;;;4.13;;
61003;SDS011;46889;37.310;13.582;2023-10-13T01:11:19;16.63;;;4.78;;
61003;SDS011;46889;37.310;13.582;2023-10-13T01:13:49;9.13;;;4.47;;
61003;SDS011;46889;37.310;13.582;2023-10-13T01:16:21;8.13;;;3.95;;
61003;SDS011;46889;37.310;13.582;2023-10-13T01:18:51;11.27;;;4.85;;
61003;SDS011;46889;37.310;13.582;2023-10-13T01:21:18;10.10;;;4.78;;
61003;SDS011;46889;37.310;13.582;2023-10-13T01:23:52;10.18;;;4.53;;
61003;SDS011;46889;37.310;13.582;2023-10-13T01:26:18;10.68;;;4.55;;
61003;SDS011;46889;37.310;13.582;2023-10-13T01:28:51;11.75;;;4.28;;
61003;SDS011;46889;37.310;13.582;2023-10-13T01:31:22;7.63;;;4.10;;
61003;SDS011;46889;37.310;13.582;2023-10-13T01:33:55;14.52;;;4.90;;
61003;SDS011;46889;37.310;13.582;2023-10-13T01:36:27;11.60;;;4.63;;
61003;SDS011;46889;37.310;13.582;2023-10-13T01:39:00;9.27;;;4.43;;
61003;SDS011;46889;37.310;13.582;2023-10-13T01:41:26;10.85;;;5.10;;
61003;SDS011;46889;37.310;13.582;2023-10-13T01:43:54;12.23;;;5.05;;
61003;SDS011;46889;37.310;13.582;2023-10-13T01:46:22;19.23;;;5.57;;
61003;SDS011;46889;37.310;13.582;2023-10-13T01:48:48;11.27;;;4.88;;
61003;SDS011;46889;37.310;13.582;2023-10-13T01:51:14;11.18;;;5.03;;
61003;SDS011;46889;37.310;13.582;2023-10-13T01:53:40;11.05;;;4.70;;
61003;SDS011;46889;37.310;13.582;2023-10-13T01:56:07;11.93;;;5.22;;
61003;SDS011;46889;37.310;13.582;2023-10-13T01:58:37;12.43;;;4.65;;
61003;SDS011;46889;37.310;13.582;2023-10-13T02:01:07;10.90;;;4.85;;
61003;SDS011;46889;37.310;13.582;2023-10-13T02:03:35;14.60;;;6.05;;
61003;SDS011;46889;37.310;13.582;2023-10-13T02:06:22;10.75;;;4.78;;
61003;SDS011;46889;37.310;13.582;2023-10-13T02:08:49;9.45;;;4.57;;
61003;SDS011;46889;37.310;13.582;2023-10-13T02:11:22;9.65;;;4.68;;
61003;SDS011;46889;37.310;13.582;2023-10-13T02:16:18;15.50;;;5.05;;
61003;SDS011;46889;37.310;13.582;2023-10-13T02:18:47;13.70;;;5.38;;
61003;SDS011;46889;37.310;13.582;2023-10-13T02:21:16;14.13;;;5.20;;
61003;SDS011;46889;37.310;13.582;2023-10-13T02:23:43;15.43;;;5.35;;
61003;SDS011;46889;37.310;13.582;2023-10-13T02:26:13;11.95;;;5.15;;
61003;SDS011;46889;37.310;13.582;2023-10-13T02:28:57;10.02;;;5.00;;
61003;SDS011;46889;37.310;13.582;2023-10-13T02:31:23;14.40;;;4.82;;
61003;SDS011;46889;37.310;13.582;2023-10-13T02:33:52;13.00;;;4.45;;
61003;SDS011;46889;37.310;13.582;2023-10-13T02:36:18;9.43;;;5.05;;
61003;SDS011;46889;37.310;13.582;2023-10-13T02:39:04;15.90;;;5.25;;
61003;SDS011;46889;37.310;13.582;2023-10-13T02:41:34;12.07;;;4.95;;
61003;SDS011;46889;37.310;13.582;2023-10-13T02:44:04;11.57;;;4.57;;
61003;SDS011;46889;37.310;13.582;2023-10-13T02:46:32;14.20;;;4.60;;
61003;SDS011;46889;37.310;13.582;2023-10-13T02:49:04;9.25;;;4.55;;
61003;SDS011;46889;37.310;13.582;2023-10-13T02:51:36;12.77;;;4.85;;
61003;SDS011;46889;37.310;13.582;2023-10-13T02:54:07;11.25;;;4.78;;
61003;SDS011;46889;37.310;13.582;2023-10-13T02:56:37;12.13;;;5.00;;
61003;SDS011;46889;37.310;13.582;2023-10-13T02:59:14;13.23;;;5.03;;
61003;SDS011;46889;37.310;13.582;2023-10-13T03:01:40;11.77;;;5.15;;
61003;SDS011;46889;37.310;13.582;2023-10-13T03:04:07;14.70;;;5.30;;
61003;SDS011;46889;37.310;13.582;2023-10-13T03:06:38;12.63;;;4.85;;
61003;SDS011;46889;37.310;13.582;2023-10-13T03:09:07;14.63;;;4.93;;
61003;SDS011;46889;37.310;13.582;2023-10-13T03:11:43;16.77;;;5.55;;
61003;SDS011;46889;37.310;13.582;2023-10-13T03:14:31;11.27;;;4.75;;
61003;SDS011;46889;37.310;13.582;2023-10-13T03:16:58;13.77;;;4.70;;
61003;SDS011;46889;37.310;13.582;2023-10-13T03:19:31;12.43;;;4.60;;
61003;SDS011;46889;37.310;13.582;2023-10-13T03:22:05;13.48;;;4.82;;
61003;SDS011;46889;37.310;13.582;2023-10-13T03:24:36;13.30;;;5.25;;
61003;SDS011;46889;37.310;13.582;2023-10-13T03:27:15;12.85;;;5.00;;
61003;SDS011;46889;37.310;13.582;2023-10-13T03:29:48;17.25;;;5.03;;
61003;SDS011;46889;37.310;13.582;2023-10-13T03:32:19;9.50;;;4.80;;
61003;SDS011;46889;37.310;13.582;2023-10-13T03:34:46;10.48;;;4.93;;
61003;SDS011;46889;37.310;13.582;2023-10-13T03:37:20;11.50;;;4.75;;
61003;SDS011;46889;37.310;13.582;2023-10-13T03:42:47;11.75;;;4.75;;
61003;SDS011;46889;37.310;13.582;2023-10-13T03:45:25;10.35;;;4.90;;
61003;SDS011;46889;37.310;13.582;2023-10-13T03:47:52;12.38;;;5.20;;
61003;SDS011;46889;37.310;13.582;2023-10-13T03:50:19;10.23;;;4.45;;
61003;SDS011;46889;37.310;13.582;2023-10-13T03:52:55;12.23;;;5.22;;
61003;SDS011;46889;37.310;13.582;2023-10-13T03:55:25;11.82;;;4.78;;
61003;SDS011;46889;37.310;13.582;2023-10-13T03:57:54;12.77;;;5.25;;
61003;SDS011;46889;37.310;13.582;2023-10-13T04:00:24;15.38;;;5.20;;
61003;SDS011;46889;37.310;13.582;2023-10-13T04:02:52;9.65;;;5.05;;
61003;SDS011;46889;37.310;13.582;2023-10-13T04:05:33;14.43;;;5.63;;
61003;SDS011;46889;37.310;13.582;2023-10-13T04:08:26;12.48;;;5.80;;
61003;SDS011;46889;37.310;13.582;2023-10-13T04:10:52;12.85;;;5.78;;
61003;SDS011;46889;37.310;13.582;2023-10-13T04:13:19;12.07;;;5.28;;
61003;SDS011;46889;37.310;13.582;2023-10-13T04:16:15;9.77;;;5.63;;
61003;SDS011;46889;37.310;13.582;2023-10-13T04:18:50;17.55;;;5.90;;
61003;SDS011;46889;37.310;13.582;2023-10-13T04:21:20;10.10;;;5.43;;
61003;SDS011;46889;37.310;13.582;2023-10-13T04:24:21;14.75;;;6.18;;
61003;SDS011;46889;37.310;13.582;2023-10-13T04:27:03;9.68;;;5.35;;
61003;SDS011;46889;37.310;13.582;2023-10-13T04:29:38;12.63;;;5.80;;
61003;SDS011;46889;37.310;13.582;2023-10-13T04:32:25;14.40;;;5.55;;
61003;SDS011;46889;37.310;13.582;2023-10-13T04:34:57;12.00;;;5.47;;
61003;SDS011;46889;37.310;13.582;2023-10-13T04:37:39;15.98;;;6.03;;
61003;SDS011;46889;37.310;13.582;2023-10-13T04:40:21;18.10;;;6.50;;
61003;SDS011;46889;37.310;13.582;2023-10-13T04:42:51;16.13;;;5.57;;
61003;SDS011;46889;37.310;13.582;2023-10-13T04:45:29;12.02;;;5.85;;
61003;SDS011;46889;37.310;13.582;2023-10-13T04:47:56;9.65;;;5.55;;
61003;SDS011;46889;37.310;13.582;2023-10-13T04:50:44;14.45;;;5.82;;
61003;SDS011;46889;37.310;13.582;2023-10-13T04:53:15;14.57;;;6.53;;
61003;SDS011;46889;37.310;13.582;2023-10-13T04:55:59;12.48;;;5.75;;
61003;SDS011;46889;37.310;13.582;2023-10-13T04:58:32;13.43;;;5.80;;
61003;SDS011;46889;37.310;13.582;2023-10-13T05:01:01;16.80;;;5.13;;
61003;SDS011;46889;37.310;13.582;2023-10-13T05:03:48;10.00;;;5.28;;
61003;SDS011;46889;37.310;13.582;2023-10-13T05:06:17;12.88;;;6.00;;
61003;SDS011;46889;37.310;13.582;2023-10-13T05:09:07;17.90;;;6.00;;
61003;SDS011;46889;37.310;13.582;2023-10-13T05:11:52;16.88;;;5.25;;
61003;SDS011;46889;37.310;13.582;2023-10-13T05:14:37;10.30;;;5.15;;
61003;SDS011;46889;37.310;13.582;2023-10-13T05:17:22;15.73;;;5.47;;
61003;SDS011;46889;37.310;13.582;2023-10-13T05:20:07;11.57;;;5.60;;
61003;SDS011;46889;37.310;13.582;2023-10-13T05:22:52;9.73;;;5.18;;
61003;SDS011;46889;37.310;13.582;2023-10-13T05:25:37;14.50;;;5.75;;
61003;SDS011;46889;37.310;13.582;2023-10-13T05:28:22;10.25;;;5.68;;
61003;SDS011;46889;37.310;13.582;2023-10-13T05:31:07;12.60;;;5.45;;
61003;SDS011;46889;37.310;13.582;2023-10-13T05:33:58;16.65;;;5.90;;
61003;SDS011;46889;37.310;13.582;2023-10-13T05:36:42;17.13;;;5.32;;
61003;SDS011;46889;37.310;13.582;2023-10-13T05:39:26;12.20;;;5.63;;
61003;SDS011;46889;37.310;13.582;2023-10-13T05:42:11;16.85;;;5.68;;
61003;SDS011;46889;37.310;13.582;2023-10-13T05:44:56;14.98;;;5.25;;
61003;SDS011;46889;37.310;13.582;2023-10-13T05:47:42;10.65;;;5.45;;
61003;SDS011;46889;37.310;13.582;2023-10-13T05:50:11;19.48;;;5.57;;
61003;SDS011;46889;37.310;13.582;2023-10-13T05:52:46;13.55;;;5.28;;
61003;SDS011;46889;37.310;13.582;2023-10-13T05:55:24;14.35;;;5.75;;
61003;SDS011;46889;37.310;13.582;2023-10-13T05:58:09;14.13;;;5.50;;
61003;SDS011;46889;37.310;13.582;2023-10-13T06:00:54;14.48;;;6.15;;
61003;SDS011;46889;37.310;13.582;2023-10-13T06:03:39;14.27;;;5.40;;
61003;SDS011;46889;37.310;13.582;2023-10-13T06:06:23;14.13;;;5.85;;
61003;SDS011;46889;37.310;13.582;2023-10-13T06:09:08;17.05;;;5.88;;
61003;SDS011;46889;37.310;13.582;2023-10-13T06:11:52;11.38;;;5.47;;
61003;SDS011;46889;37.310;13.582;2023-10-13T06:14:37;14.90;;;5.60;;
61003;SDS011;46889;37.310;13.582;2023-10-13T06:17:22;13.52;;;5.90;;
61003;SDS011;46889;37.310;13.582;2023-10-13T06:20:07;14.15;;;5.45;;
61003;SDS011;46889;37.310;13.582;2023-10-13T06:22:51;11.25;;;5.05;;
61003;SDS011;46889;37.310;13.582;2023-10-13T06:25:37;14.63;;;5.72;;
61003;SDS011;46889;37.310;13.582;2023-10-13T06:28:22;17.67;;;5.63;;
61003;SDS011;46889;37.310;13.582;2023-10-13T06:31:06;12.65;;;5.35;;
61003;SDS011;46889;37.310;13.582;2023-10-13T06:33:33;16.77;;;5.43;;
61003;SDS011;46889;37.310;13.582;2023-10-13T06:36:03;14.07;;;5.30;;
61003;SDS011;46889;37.310;13.582;2023-10-13T06:38:34;15.98;;;5.45;;
61003;SDS011;46889;37.310;13.582;2023-10-13T06:41:07;18.20;;;5.22;;
61003;SDS011;46889;37.310;13.582;2023-10-13T06:43:36;17.58;;;5.30;;
61003;SDS011;46889;37.310;13.582;2023-10-13T06:46:11;40.58;;;6.95;;
61003;SDS011;46889;37.310;13.582;2023-10-13T06:48:48;12.18;;;5.05;;
61003;SDS011;46889;37.310;13.582;2023-10-13T06:51:19;17.17;;;5.65;;
61003;SDS011;46889;37.310;13.582;2023-10-13T06:53:50;23.77;;;5.80;;
61003;SDS011;46889;37.310;13.582;2023-10-13T06:56:21;12.65;;;5.38;;
61003;SDS011;46889;37.310;13.582;2023-10-13T06:58:51;15.95;;;5.28;;
61003;SDS011;46889;37.310;13.582;2023-10-13T07:01:24;20.27;;;5.07;;
61003;SDS011;46889;37.310;13.582;2023-10-13T07:03:51;12.20;;;5.28;;
61003;SDS011;46889;37.310;13.582;2023-10-13T07:06:26;12.52;;;5.38;;
61003;SDS011;46889;37.310;13.582;2023-10-13T07:08:53;16.85;;;5.47;;
61003;SDS011;46889;37.310;13.582;2023-10-13T07:14:01;12.68;;;5.13;;
61003;SDS011;46889;37.310;13.582;2023-10-13T07:19:24;15.93;;;4.65;;
61003;SDS011;46889;37.310;13.582;2023-10-13T07:21:56;11.73;;;4.70;;
61003;SDS011;46889;37.310;13.582;2023-10-13T07:24:47;10.90;;;5.00;;
61003;SDS011;46889;37.310;13.582;2023-10-13T07:27:15;14.13;;;5.18;;
61003;SDS011;46889;37.310;13.582;2023-10-13T07:29:49;11.45;;;5.13;;
61003;SDS011;46889;37.310;13.582;2023-10-13T07:32:36;12.98;;;5.30;;
61003;SDS011;46889;37.310;13.582;2023-10-13T07:35:03;12.40;;;5.53;;
61003;SDS011;46889;37.310;13.582;2023-10-13T07:37:32;11.85;;;5.10;;
61003;SDS011;46889;37.310;13.582;2023-10-13T07:39:58;10.70;;;5.63;;
61003;SDS011;46889;37.310;13.582;2023-10-13T07:42:26;14.52;;;5.70;;
61003;SDS011;46889;37.310;13.582;2023-10-13T07:45:04;10.68;;;5.10;;
61003;SDS011;46889;37.310;13.582;2023-10-13T07:47:31;11.20;;;5.45;;
61003;SDS011;46889;37.310;13.582;2023-10-13T07:49:58;12.77;;;5.50;;
61003;SDS011;46889;37.310;13.582;2023-10-13T07:52:26;10.15;;;5.20;;
61003;SDS011;46889;37.310;13.582;2023-10-13T07:55:01;13.38;;;5.43;;
61003;SDS011;46889;37.310;13.582;2023-10-13T07:57:37;10.47;;;5.60;;
61003;SDS011;46889;37.310;13.582;2023-10-13T08:00:22;15.10;;;5.50;;
61003;SDS011;46889;37.310;13.582;2023-10-13T08:03:12;13.13;;;5.28;;
61003;SDS011;46889;37.310;13.582;2023-10-13T08:05:42;11.13;;;5.18;;
61003;SDS011;46889;37.310;13.582;2023-10-13T08:08:30;12.95;;;5.63;;
61003;SDS011;46889;37.310;13.582;2023-10-13T08:11:09;12.75;;;5.03;;
61003;SDS011;46889;37.310;13.582;2023-10-13T08:13:43;12.02;;;5.35;;
61003;SDS011;46889;37.310;13.582;2023-10-13T08:16:12;19.73;;;5.65;;
61003;SDS011;46889;37.310;13.582;2023-10-13T08:18:51;12.73;;;4.93;;
61003;SDS011;46889;37.310;13.582;2023-10-13T08:21:21;12.45;;;5.13;;
61003;SDS011;46889;37.310;13.582;2023-10-13T08:23:55;16.05;;;5.30;;
61003;SDS011;46889;37.310;13.582;2023-10-13T08:26:22;11.48;;;4.30;;
61003;SDS011;46889;37.310;13.582;2023-10-13T08:29:01;15.77;;;4.75;;
61003;SDS011;46889;37.310;13.582;2023-10-13T08:31:43;13.60;;;4.60;;
61003;SDS011;46889;37.310;13.582;2023-10-13T08:34:42;9.50;;;4.40;;
61003;SDS011;46889;37.310;13.582;2023-10-13T08:37:12;9.80;;;4.50;;
61003;SDS011;46889;37.310;13.582;2023-10-13T08:39:59;10.30;;;4.82;;
61003;SDS011;46889;37.310;13.582;2023-10-13T08:42:29;13.40;;;4.97;;
61003;SDS011;46889;37.310;13.582;2023-10-13T08:45:09;8.82;;;4.30;;
61003;SDS011;46889;37.310;13.582;2023-10-13T08:47:48;16.95;;;5.13;;
61003;SDS011;46889;37.310;13.582;2023-10-13T08:50:38;10.70;;;4.25;;
61003;SDS011;46889;37.310;13.582;2023-10-13T08:55:51;14.68;;;4.57;;
61003;SDS011;46889;37.310;13.582;2023-10-13T08:58:42;14.27;;;4.40;;
61003;SDS011;46889;37.310;13.582;2023-10-13T09:01:30;10.85;;;4.45;;
61003;SDS011;46889;37.310;13.582;2023-10-13T09:04:11;14.95;;;5.25;;
61003;SDS011;46889;37.310;13.582;2023-10-13T09:06:53;13.40;;;5.10;;
61003;SDS011;46889;37.310;13.582;2023-10-13T09:09:25;14.45;;;5.00;;
61003;SDS011;46889;37.310;13.582;2023-10-13T09:12:20;10.50;;;4.13;;
61003;SDS011;46889;37.310;13.582;2023-10-13T09:15:01;15.25;;;4.05;;
61003;SDS011;46889;37.310;13.582;2023-10-13T09:17:46;12.57;;;4.63;;
61003;SDS011;46889;37.310;13.582;2023-10-13T09:20:17;12.68;;;5.20;;
61003;SDS011;46889;37.310;13.582;2023-10-13T09:23:08;18.15;;;5.78;;
61003;SDS011;46889;37.310;13.582;2023-10-13T09:25:49;18.00;;;6.10;;
61003;SDS011;46889;37.310;13.582;2023-10-13T09:28:34;15.68;;;6.07;;
61003;SDS011;46889;37.310;13.582;2023-10-13T09:31:02;18.38;;;6.25;;
61003;SDS011;46889;37.310;13.582;2023-10-13T09:33:32;21.75;;;6.55;;
61003;SDS011;46889;37.310;13.582;2023-10-13T09:36:04;12.95;;;5.63;;
61003;SDS011;46889;37.310;13.582;2023-10-13T09:38:38;12.55;;;5.72;;
61003;SDS011;46889;37.310;13.582;2023-10-13T09:41:13;12.63;;;6.13;;
61003;SDS011;46889;37.310;13.582;2023-10-13T09:43:52;17.00;;;6.40;;
61003;SDS011;46889;37.310;13.582;2023-10-13T09:46:23;14.68;;;6.25;;
61003;SDS011;46889;37.310;13.582;2023-10-13T09:49:03;13.07;;;5.85;;
61003;SDS011;46889;37.310;13.582;2023-10-13T09:51:40;21.85;;;6.47;;
61003;SDS011;46889;37.310;13.582;2023-10-13T09:54:53;13.07;;;6.05;;
61003;SDS011;46889;37.310;13.582;2023-10-13T09:57:08;20.77;;;6.07;;
61003;SDS011;46889;37.310;13.582;2023-10-13T09:59:42;16.73;;;5.97;;
61003;SDS011;46889;37.310;13.582;2023-10-13T10:02:17;18.63;;;6.35;;
61003;SDS011;46889;37.310;13.582;2023-10-13T10:04:56;18.55;;;6.53;;
61003;SDS011;46889;37.310;13.582;2023-10-13T10:07:53;21.15;;;5.93;;
61003;SDS011;46889;37.310;13.582;2023-10-13T10:11:14;26.58;;;7.15;;
61003;SDS011;46889;37.310;13.582;2023-10-13T10:13:31;33.97;;;7.43;;
61003;SDS011;46889;37.310;13.582;2023-10-13T10:16:08;16.27;;;5.90;;
61003;SDS011;46889;37.310;13.582;2023-10-13T10:18:41;18.67;;;6.63;;
61003;SDS011;46889;37.310;13.582;2023-10-13T10:21:08;17.15;;;6.43;;
61003;SDS011;46889;37.310;13.582;2023-10-13T10:23:35;19.30;;;5.80;;
61003;SDS011;46889;37.310;13.582;2023-10-13T10:26:11;20.08;;;6.68;;
61003;SDS011;46889;37.310;13.582;2023-10-13T10:28:45;19.55;;;6.30;;
61003;SDS011;46889;37.310;13.582;2023-10-13T10:31:11;13.82;;;6.63;;
61003;SDS011;46889;37.310;13.582;2023-10-13T10:33:39;14.43;;;6.45;;
61003;SDS011;46889;37.310;13.582;2023-10-13T10:36:06;17.38;;;6.28;;
61003;SDS011;46889;37.310;13.582;2023-10-13T10:38:51;15.93;;;6.55;;
61003;SDS011;46889;37.310;13.582;2023-10-13T10:41:27;18.05;;;6.35;;
61003;SDS011;46889;37.310;13.582;2023-10-13T10:44:12;13.35;;;6.45;;
61003;SDS011;46889;37.310;13.582;2023-10-13T10:46:48;19.58;;;6.30;;
61003;SDS011;46889;37.310;13.582;2023-10-13T10:49:22;13.35;;;6.40;;
61003;SDS011;46889;37.310;13.582;2023-10-13T10:51:59;19.67;;;6.88;;
61003;SDS011;46889;37.310;13.582;2023-10-13T10:54:31;14.90;;;6.10;;
61003;SDS011;46889;37.310;13.582;2023-10-13T10:56:58;17.83;;;6.05;;
61003;SDS011;46889;37.310;13.582;2023-10-13T10:59:51;16.48;;;6.43;;
61003;SDS011;46889;37.310;13.582;2023-10-13T11:02:34;13.98;;;6.72;;
61003;SDS011;46889;37.310;13.582;2023-10-13T11:05:00;16.75;;;6.60;;
61003;SDS011;46889;37.310;13.582;2023-10-13T11:09:55;14.70;;;6.32;;
61003;SDS011;46889;37.310;13.582;2023-10-13T11:12:32;22.15;;;6.53;;
61003;SDS011;46889;37.310;13.582;2023-10-13T11:15:03;19.85;;;6.20;;
61003;SDS011;46889;37.310;13.582;2023-10-13T11:17:41;16.25;;;6.38;;
61003;SDS011;46889;37.310;13.582;2023-10-13T11:20:08;13.60;;;6.00;;
61003;SDS011;46889;37.310;13.582;2023-10-13T11:22:48;17.60;;;5.43;;
61003;SDS011;46889;37.310;13.582;2023-10-13T11:25:24;15.40;;;6.07;;
61003;SDS011;46889;37.310;13.582;2023-10-13T11:28:16;15.10;;;6.07;;
61003;SDS011;46889;37.310;13.582;2023-10-13T11:30:46;11.80;;;5.85;;
61003;SDS011;46889;37.310;13.582;2023-10-13T11:33:16;20.20;;;5.65;;
61003;SDS011;46889;37.310;13.582;2023-10-13T11:35:55;18.75;;;6.28;;
61003;SDS011;46889;37.310;13.582;2023-10-13T11:38:25;15.30;;;6.45;;
61003;SDS011;46889;37.310;13.582;2023-10-13T11:40:59;14.70;;;5.95;;
61003;SDS011;46889;37.310;13.582;2023-10-13T11:43:30;20.83;;;6.18;;
61003;SDS011;46889;37.310;13.582;2023-10-13T11:46:26;12.68;;;6.07;;
61003;SDS011;46889;37.310;13.582;2023-10-13T11:49:03;14.77;;;6.13;;
61003;SDS011;46889;37.310;13.582;2023-10-13T11:51:53;16.48;;;5.97;;
61003;SDS011;46889;37.310;13.582;2023-10-13T11:54:41;18.75;;;7.13;;
61003;SDS011;46889;37.310;13.582;2023-10-13T11:57:07;14.50;;;5.97;;
61003;SDS011;46889;37.310;13.582;2023-10-13T11:59:34;13.60;;;5.63;;
61003;SDS011;46889;37.310;13.582;2023-10-13T12:02:05;15.98;;;5.72;;
61003;SDS011;46889;37.310;13.582;2023-10-13T12:04:50;13.00;;;5.95;;
61003;SDS011;46889;37.310;13.582;2023-10-13T12:07:28;28.58;;;6.63;;
61003;SDS011;46889;37.310;13.582;2023-10-13T12:10:13;14.40;;;6.00;;
61003;SDS011;46889;37.310;13.582;2023-10-13T12:12:59;17.25;;;6.25;;
61003;SDS011;46889;37.310;13.582;2023-10-13T12:15:31;11.73;;;5.80;;
61003;SDS011;46889;37.310;13.582;2023-10-13T12:18:24;13.27;;;5.88;;
61003;SDS011;46889;37.310;13.582;2023-10-13T12:20:53;11.60;;;5.57;;
61003;SDS011;46889;37.310;13.582;2023-10-13T12:23:19;15.15;;;5.85;;
61003;SDS011;46889;37.310;13.582;2023-10-13T12:25:46;17.20;;;5.75;;
61003;SDS011;46889;37.310;13.582;2023-10-13T12:28:24;13.65;;;5.57;;
61003;SDS011;46889;37.310;13.582;2023-10-13T12:30:54;14.07;;;5.57;;
61003;SDS011;46889;37.310;13.582;2023-10-13T12:33:22;15.23;;;5.65;;
61003;SDS011;46889;37.310;13.582;2023-10-13T12:35:55;16.58;;;5.75;;
61003;SDS011;46889;37.310;13.582;2023-10-13T12:38:55;15.52;;;5.47;;
61003;SDS011;46889;37.310;13.582;2023-10-13T12:41:33;15.32;;;7.25;;
61003;SDS011;46889;37.310;13.582;2023-10-13T12:44:18;14.77;;;5.65;;
61003;SDS011;46889;37.310;13.582;2023-10-13T12:47:02;12.68;;;4.93;;
61003;SDS011;46889;37.310;13.582;2023-10-13T12:49:46;16.92;;;5.00;;
61003;SDS011;46889;37.310;13.582;2023-10-13T12:52:12;13.13;;;5.32;;
61003;SDS011;46889;37.310;13.582;2023-10-13T12:54:45;12.95;;;5.32;;
61003;SDS011;46889;37.310;13.582;2023-10-13T12:57:15;16.30;;;5.32;;
61003;SDS011;46889;37.310;13.582;2023-10-13T12:59:42;13.48;;;5.80;;
61003;SDS011;46889;37.310;13.582;2023-10-13T13:02:08;17.02;;;5.90;;
61003;SDS011;46889;37.310;13.582;2023-10-13T13:04:40;17.33;;;6.00;;
61003;SDS011;46889;37.310;13.582;2023-10-13T13:07:09;14.77;;;5.93;;
61003;SDS011;46889;37.310;13.582;2023-10-13T13:09:42;16.00;;;5.70;;
61003;SDS011;46889;37.310;13.582;2023-10-13T13:12:08;17.05;;;5.80;;
61003;SDS011;46889;37.310;13.582;2023-10-13T13:14:37;17.88;;;7.60;;
61003;SDS011;46889;37.310;13.582;2023-10-13T13:17:06;16.33;;;5.97;;
61003;SDS011;46889;37.310;13.582;2023-10-13T13:19:33;17.25;;;5.80;;
61003;SDS011;46889;37.310;13.582;2023-10-13T13:22:05;10.07;;;5.07;;
61003;SDS011;46889;37.310;13.582;2023-10-13T13:24:39;13.38;;;5.60;;
61003;SDS011;46889;37.310;13.582;2023-10-13T13:27:15;15.75;;;6.25;;
61003;SDS011;46889;37.310;13.582;2023-10-13T13:29:47;17.58;;;6.20;;
61003;SDS011;46889;37.310;13.582;2023-10-13T13:32:14;20.60;;;5.50;;
61003;SDS011;46889;37.310;13.582;2023-10-13T13:34:52;21.53;;;6.30;;
61003;SDS011;46889;37.310;13.582;2023-10-13T13:37:30;17.55;;;6.00;;
61003;SDS011;46889;37.310;13.582;2023-10-13T13:39:56;14.45;;;5.75;;
61003;SDS011;46889;37.310;13.582;2023-10-13T13:42:39;15.32;;;5.72;;
61003;SDS011;46889;37.310;13.582;2023-10-13T13:45:08;15.32;;;6.05;;
61003;SDS011;46889;37.310;13.582;2023-10-13T13:47:48;16.08;;;6.95;;
61003;SDS011;46889;37.310;13.582;2023-10-13T13:50:24;19.52;;;6.95;;
61003;SDS011;46889;37.310;13.582;2023-10-13T13:52:55;19.70;;;7.90;;
61003;SDS011;46889;37.310;13.582;2023-10-13T13:55:23;19.75;;;7.50;;
61003;SDS011;46889;37.310;13.582;2023-10-13T13:57:56;19.63;;;7.43;;
61003;SDS011;46889;37.310;13.582;2023-10-13T14:00:23;14.73;;;6.97;;
61003;SDS011;46889;37.310;13.582;2023-10-13T14:03:05;17.63;;;7.60;;
61003;SDS011;46889;37.310;13.582;2023-10-13T14:05:44;18.88;;;7.07;;
61003;SDS011;46889;37.310;13.582;2023-10-13T14:08:10;18.52;;;6.63;;
61003;SDS011;46889;37.310;13.582;2023-10-13T14:10:40;14.23;;;6.88;;
61003;SDS011;46889;37.310;13.582;2023-10-13T14:13:25;18.00;;;6.40;;
61003;SDS011;46889;37.310;13.582;2023-10-13T14:18:43;17.77;;;7.07;;
61003;SDS011;46889;37.310;13.582;2023-10-13T14:21:13;16.65;;;6.47;;
61003;SDS011;46889;37.310;13.582;2023-10-13T14:23:46;15.77;;;7.10;;
61003;SDS011;46889;37.310;13.582;2023-10-13T14:26:17;16.90;;;6.57;;
61003;SDS011;46889;37.310;13.582;2023-10-13T14:28:49;21.52;;;7.20;;
61003;SDS011;46889;37.310;13.582;2023-10-13T14:31:35;16.00;;;6.90;;
61003;SDS011;46889;37.310;13.582;2023-10-13T14:34:07;18.30;;;8.70;;
61003;SDS011;46889;37.310;13.582;2023-10-13T14:36:33;21.48;;;8.60;;
61003;SDS011;46889;37.310;13.582;2023-10-13T14:39:04;17.13;;;6.22;;
61003;SDS011;46889;37.310;13.582;2023-10-13T14:41:37;19.27;;;7.70;;
61003;SDS011;46889;37.310;13.582;2023-10-13T14:44:04;44.65;;;14.82;;
61003;SDS011;46889;37.310;13.582;2023-10-13T14:48:56;21.38;;;8.65;;
61003;SDS011;46889;37.310;13.582;2023-10-13T14:51:26;30.35;;;9.23;;
61003;SDS011;46889;37.310;13.582;2023-10-13T14:53:53;20.58;;;9.05;;
61003;SDS011;46889;37.310;13.582;2023-10-13T14:56:21;18.52;;;6.53;;
61003;SDS011;46889;37.310;13.582;2023-10-13T14:58:51;16.55;;;7.80;;
61003;SDS011;46889;37.310;13.582;2023-10-13T15:01:19;17.25;;;6.50;;
61003;SDS011;46889;37.310;13.582;2023-10-13T15:03:52;21.13;;;10.65;;
61003;SDS011;46889;37.310;13.582;2023-10-13T15:06:23;18.95;;;6.55;;
61003;SDS011;46889;37.310;13.582;2023-10-13T15:08:51;15.93;;;7.88;;
61003;SDS011;46889;37.310;13.582;2023-10-13T15:11:20;15.50;;;6.85;;
61003;SDS011;46889;37.310;13.582;2023-10-13T15:13:47;18.98;;;8.68;;
61003;SDS011;46889;37.310;13.582;2023-10-13T15:16:17;23.00;;;9.60;;
61003;SDS011;46889;37.310;13.582;2023-10-13T15:18:52;17.83;;;6.97;;
61003;SDS011;46889;37.310;13.582;2023-10-13T15:21:22;15.10;;;7.07;;
61003;SDS011;46889;37.310;13.582;2023-10-13T15:23:55;18.48;;;6.25;;
61003;SDS011;46889;37.310;13.582;2023-10-13T15:26:28;16.60;;;6.40;;
61003;SDS011;46889;37.310;13.582;2023-10-13T15:28:55;16.98;;;6.57;;
61003;SDS011;46889;37.310;13.582;2023-10-13T15:31:23;14.35;;;5.50;;
61003;SDS011;46889;37.310;13.582;2023-10-13T15:34:03;15.82;;;5.75;;